sensor_id;sensor_type;location;lat;lon;timestamp;P1;durP1;ratioP1;P2;durP2;ratioP2
53421;SDS011;39319;52.944;5.928;2022-11-15T00:00:16;28.63;;;23.60;;
53421;SDS011;39319;52.944;5.928;2022-11-15T00:02:43;28.13;;;23.20;;
53421;SDS011;39319;52.944;5.928;2022-11-15T00:05:09;28.38;;;23.88;;
53421;SDS011;39319;52.944;5.928;2022-11-15T00:07:35;29.50;;;23.33;;
53421;SDS011;39319;52.944;5.928;2022-11-15T00:10:01;28.40;;;22.90;;
53421;SDS011;39319;52.944;5.928;2022-11-15T00:12:28;30.38;;;23.80;;
53421;SDS011;39319;52.944;5.928;2022-11-15T00:14:54;31.45;;;24.58;;
53421;SDS011;39319;52.944;5.928;2022-11-15T00:17:19;33.33;;;24.90;;
53421;SDS011;39319;52.944;5.928;2022-11-15T00:19:45;29.80;;;24.13;;
53421;SDS011;39319;52.944;5.928;2022-11-15T00:22:14;30.17;;;23.75;;
53421;SDS011;39319;52.944;5.928;2022-11-15T00:24:39;32.50;;;24.73;;
53421;SDS011;39319;52.944;5.928;2022-11-15T00:27:05;29.20;;;24.63;;
53421;SDS011;39319;52.944;5.928;2022-11-15T00:29:31;31.10;;;24.87;;
53421;SDS011;39319;52.944;5.928;2022-11-15T00:31:56;33.92;;;26.98;;
53421;SDS011;39319;52.944;5.928;2022-11-15T00:34:22;35.28;;;28.45;;
53421;SDS011;39319;52.944;5.928;2022-11-15T00:36:51;32.25;;;27.88;;
53421;SDS011;39319;52.944;5.928;2022-11-15T00:39:17;32.73;;;28.60;;
53421;SDS011;39319;52.944;5.928;2022-11-15T00:41:43;34.78;;;29.35;;
53421;SDS011;39319;52.944;5.928;2022-11-15T00:44:08;32.40;;;28.75;;
53421;SDS011;39319;52.944;5.928;2022-11-15T00:46:34;36.23;;;29.27;;
53421;SDS011;39319;52.944;5.928;2022-11-15T00:49:00;35.58;;;29.48;;
53421;SDS011;39319;52.944;5.928;2022-11-15T00:51:26;34.47;;;29.80;;
53421;SDS011;39319;52.944;5.928;2022-11-15T00:53:54;35.38;;;30.40;;
53421;SDS011;39319;52.944;5.928;2022-11-15T00:56:21;36.03;;;30.52;;
53421;SDS011;39319;52.944;5.928;2022-11-15T00:58:46;35.17;;;30.43;;
53421;SDS011;39319;52.944;5.928;2022-11-15T01:01:13;36.57;;;30.87;;
53421;SDS011;39319;52.944;5.928;2022-11-15T01:03:40;36.30;;;30.27;;
53421;SDS011;39319;52.944;5.928;2022-11-15T01:06:06;36.58;;;30.30;;
53421;SDS011;39319;52.944;5.928;2022-11-15T01:08:33;37.70;;;30.95;;
53421;SDS011;39319;52.944;5.928;2022-11-15T01:11:03;37.42;;;31.02;;
53421;SDS011;39319;52.944;5.928;2022-11-15T01:13:31;37.33;;;30.45;;
53421;SDS011;39319;52.944;5.928;2022-11-15T01:15:58;35.88;;;30.65;;
53421;SDS011;39319;52.944;5.928;2022-11-15T01:18:30;36.30;;;29.00;;
53421;SDS011;39319;52.944;5.928;2022-11-15T01:20:55;36.60;;;29.27;;
53421;SDS011;39319;52.944;5.928;2022-11-15T01:23:21;34.70;;;28.73;;
53421;SDS011;39319;52.944;5.928;2022-11-15T01:25:47;35.17;;;28.88;;
53421;SDS011;39319;52.944;5.928;2022-11-15T01:28:13;36.07;;;29.37;;
53421;SDS011;39319;52.944;5.928;2022-11-15T01:30:39;35.10;;;28.30;;
53421;SDS011;39319;52.944;5.928;2022-11-15T01:33:05;36.53;;;29.60;;
53421;SDS011;39319;52.944;5.928;2022-11-15T01:35:31;35.70;;;28.85;;
53421;SDS011;39319;52.944;5.928;2022-11-15T01:37:56;37.38;;;29.77;;
53421;SDS011;39319;52.944;5.928;2022-11-15T01:40:23;34.92;;;28.83;;
53421;SDS011;39319;52.944;5.928;2022-11-15T01:42:49;34.57;;;28.63;;
53421;SDS011;39319;52.944;5.928;2022-11-15T01:45:17;34.97;;;27.00;;
53421;SDS011;39319;52.944;5.928;2022-11-15T01:47:44;34.53;;;27.90;;
53421;SDS011;39319;52.944;5.928;2022-11-15T01:50:17;35.47;;;27.88;;
53421;SDS011;39319;52.944;5.928;2022-11-15T01:52:48;34.53;;;27.67;;
53421;SDS011;39319;52.944;5.928;2022-11-15T01:55:16;35.88;;;28.90;;
53421;SDS011;39319;52.944;5.928;2022-11-15T01:57:45;35.10;;;28.07;;
53421;SDS011;39319;52.944;5.928;2022-11-15T02:00:13;35.33;;;28.23;;
53421;SDS011;39319;52.944;5.928;2022-11-15T02:02:39;35.50;;;28.48;;
53421;SDS011;39319;52.944;5.928;2022-11-15T02:05:05;34.78;;;27.95;;
53421;SDS011;39319;52.944;5.928;2022-11-15T02:07:34;33.73;;;26.80;;
53421;SDS011;39319;52.944;5.928;2022-11-15T02:10:11;37.53;;;28.60;;
53421;SDS011;39319;52.944;5.928;2022-11-15T02:12:39;38.97;;;29.40;;
53421;SDS011;39319;52.944;5.928;2022-11-15T02:15:06;39.83;;;30.42;;
53421;SDS011;39319;52.944;5.928;2022-11-15T02:20:41;42.15;;;31.58;;
53421;SDS011;39319;52.944;5.928;2022-11-15T02:40:00;45.22;;;32.17;;
53421;SDS011;39319;52.944;5.928;2022-11-15T02:42:37;46.83;;;33.47;;
53421;SDS011;39319;52.944;5.928;2022-11-15T02:45:28;46.20;;;32.22;;
53421;SDS011;39319;52.944;5.928;2022-11-15T02:47:58;51.78;;;33.83;;
53421;SDS011;39319;52.944;5.928;2022-11-15T02:50:27;50.45;;;33.90;;
53421;SDS011;39319;52.944;5.928;2022-11-15T02:52:54;47.28;;;33.70;;
53421;SDS011;39319;52.944;5.928;2022-11-15T02:55:34;51.50;;;34.97;;
53421;SDS011;39319;52.944;5.928;2022-11-15T03:00:42;52.83;;;34.53;;
53421;SDS011;39319;52.944;5.928;2022-11-15T03:03:25;50.50;;;35.15;;
53421;SDS011;39319;52.944;5.928;2022-11-15T03:06:08;52.80;;;35.05;;
53421;SDS011;39319;52.944;5.928;2022-11-15T03:09:02;53.17;;;34.28;;
53421;SDS011;39319;52.944;5.928;2022-11-15T03:11:33;53.67;;;35.20;;
53421;SDS011;39319;52.944;5.928;2022-11-15T03:14:12;53.17;;;35.45;;
53421;SDS011;39319;52.944;5.928;2022-11-15T03:16:50;51.70;;;34.83;;
53421;SDS011;39319;52.944;5.928;2022-11-15T03:19:28;55.05;;;35.42;;
53421;SDS011;39319;52.944;5.928;2022-11-15T03:21:55;58.05;;;35.75;;
53421;SDS011;39319;52.944;5.928;2022-11-15T03:24:23;60.30;;;36.83;;
53421;SDS011;39319;52.944;5.928;2022-11-15T03:26:50;59.67;;;36.88;;
53421;SDS011;39319;52.944;5.928;2022-11-15T03:29:21;59.47;;;36.22;;
53421;SDS011;39319;52.944;5.928;2022-11-15T03:31:52;62.63;;;37.67;;
53421;SDS011;39319;52.944;5.928;2022-11-15T03:37:02;61.30;;;36.87;;
53421;SDS011;39319;52.944;5.928;2022-11-15T03:39:30;61.25;;;37.45;;
53421;SDS011;39319;52.944;5.928;2022-11-15T03:50:12;67.63;;;38.80;;
53421;SDS011;39319;52.944;5.928;2022-11-15T03:52:41;65.03;;;37.90;;
53421;SDS011;39319;52.944;5.928;2022-11-15T03:55:09;68.53;;;38.20;;
53421;SDS011;39319;52.944;5.928;2022-11-15T03:57:38;64.88;;;37.75;;
53421;SDS011;39319;52.944;5.928;2022-11-15T04:00:07;61.58;;;37.63;;
53421;SDS011;39319;52.944;5.928;2022-11-15T04:02:33;61.88;;;36.90;;
53421;SDS011;39319;52.944;5.928;2022-11-15T04:04:59;64.82;;;37.85;;
53421;SDS011;39319;52.944;5.928;2022-11-15T04:07:25;58.42;;;36.10;;
53421;SDS011;39319;52.944;5.928;2022-11-15T04:09:54;59.53;;;36.27;;
53421;SDS011;39319;52.944;5.928;2022-11-15T04:12:32;57.58;;;35.55;;
53421;SDS011;39319;52.944;5.928;2022-11-15T04:15:03;54.63;;;34.50;;
53421;SDS011;39319;52.944;5.928;2022-11-15T04:17:34;55.33;;;34.33;;
53421;SDS011;39319;52.944;5.928;2022-11-15T04:22:58;56.03;;;34.25;;
53421;SDS011;39319;52.944;5.928;2022-11-15T04:25:44;61.10;;;35.83;;
53421;SDS011;39319;52.944;5.928;2022-11-15T04:28:10;59.92;;;36.40;;
53421;SDS011;39319;52.944;5.928;2022-11-15T04:30:41;59.72;;;35.75;;
53421;SDS011;39319;52.944;5.928;2022-11-15T04:33:07;58.10;;;36.10;;
53421;SDS011;39319;52.944;5.928;2022-11-15T04:35:33;60.67;;;37.45;;
53421;SDS011;39319;52.944;5.928;2022-11-15T04:37:59;61.83;;;38.60;;
53421;SDS011;39319;52.944;5.928;2022-11-15T04:40:26;65.88;;;38.75;;
53421;SDS011;39319;52.944;5.928;2022-11-15T04:42:51;60.67;;;37.53;;
53421;SDS011;39319;52.944;5.928;2022-11-15T04:45:17;63.55;;;39.05;;
53421;SDS011;39319;52.944;5.928;2022-11-15T04:47:44;69.90;;;41.42;;
53421;SDS011;39319;52.944;5.928;2022-11-15T04:50:10;68.68;;;41.42;;
53421;SDS011;39319;52.944;5.928;2022-11-15T04:52:41;65.53;;;40.17;;
53421;SDS011;39319;52.944;5.928;2022-11-15T04:55:09;66.45;;;39.60;;
53421;SDS011;39319;52.944;5.928;2022-11-15T04:57:35;65.88;;;40.63;;
53421;SDS011;39319;52.944;5.928;2022-11-15T05:00:05;64.40;;;40.38;;
53421;SDS011;39319;52.944;5.928;2022-11-15T05:02:36;69.45;;;42.05;;
53421;SDS011;39319;52.944;5.928;2022-11-15T05:05:21;68.73;;;41.83;;
53421;SDS011;39319;52.944;5.928;2022-11-15T05:07:48;62.35;;;41.40;;
53421;SDS011;39319;52.944;5.928;2022-11-15T05:10:14;74.37;;;44.23;;
53421;SDS011;39319;52.944;5.928;2022-11-15T05:12:43;69.30;;;41.97;;
53421;SDS011;39319;52.944;5.928;2022-11-15T05:15:09;78.55;;;46.17;;
53421;SDS011;39319;52.944;5.928;2022-11-15T05:17:34;79.35;;;46.33;;
53421;SDS011;39319;52.944;5.928;2022-11-15T05:20:00;78.50;;;45.67;;
53421;SDS011;39319;52.944;5.928;2022-11-15T05:22:26;73.50;;;46.08;;
53421;SDS011;39319;52.944;5.928;2022-11-15T05:24:52;79.88;;;46.25;;
53421;SDS011;39319;52.944;5.928;2022-11-15T05:27:18;77.93;;;46.15;;
53421;SDS011;39319;52.944;5.928;2022-11-15T05:29:44;82.23;;;47.50;;
53421;SDS011;39319;52.944;5.928;2022-11-15T05:32:09;73.93;;;45.50;;
53421;SDS011;39319;52.944;5.928;2022-11-15T05:34:37;79.93;;;47.10;;
53421;SDS011;39319;52.944;5.928;2022-11-15T05:37:03;76.13;;;46.75;;
53421;SDS011;39319;52.944;5.928;2022-11-15T05:39:29;80.30;;;47.08;;
53421;SDS011;39319;52.944;5.928;2022-11-15T05:41:56;78.78;;;46.35;;
53421;SDS011;39319;52.944;5.928;2022-11-15T05:44:36;77.88;;;46.45;;
53421;SDS011;39319;52.944;5.928;2022-11-15T05:47:08;84.28;;;48.00;;
53421;SDS011;39319;52.944;5.928;2022-11-15T05:49:38;81.32;;;47.78;;
53421;SDS011;39319;52.944;5.928;2022-11-15T05:52:08;77.22;;;45.85;;
53421;SDS011;39319;52.944;5.928;2022-11-15T05:54:38;83.70;;;47.95;;
53421;SDS011;39319;52.944;5.928;2022-11-15T05:57:04;72.60;;;44.30;;
53421;SDS011;39319;52.944;5.928;2022-11-15T05:59:30;78.22;;;46.20;;
53421;SDS011;39319;52.944;5.928;2022-11-15T06:01:58;74.82;;;46.45;;
53421;SDS011;39319;52.944;5.928;2022-11-15T06:04:24;78.72;;;47.10;;
53421;SDS011;39319;52.944;5.928;2022-11-15T06:06:50;78.30;;;47.17;;
53421;SDS011;39319;52.944;5.928;2022-11-15T06:09:18;73.95;;;45.78;;
53421;SDS011;39319;52.944;5.928;2022-11-15T06:11:44;83.55;;;48.10;;
53421;SDS011;39319;52.944;5.928;2022-11-15T06:14:10;80.63;;;47.28;;
53421;SDS011;39319;52.944;5.928;2022-11-15T06:16:36;75.43;;;46.65;;
53421;SDS011;39319;52.944;5.928;2022-11-15T06:19:02;80.82;;;48.47;;
53421;SDS011;39319;52.944;5.928;2022-11-15T06:21:27;87.68;;;48.55;;
53421;SDS011;39319;52.944;5.928;2022-11-15T06:23:54;85.50;;;49.35;;
53421;SDS011;39319;52.944;5.928;2022-11-15T06:26:20;81.35;;;48.83;;
53421;SDS011;39319;52.944;5.928;2022-11-15T06:28:46;82.13;;;48.83;;
53421;SDS011;39319;52.944;5.928;2022-11-15T06:31:14;99.13;;;52.63;;
53421;SDS011;39319;52.944;5.928;2022-11-15T06:33:40;82.17;;;49.40;;
53421;SDS011;39319;52.944;5.928;2022-11-15T06:36:07;88.28;;;50.80;;
53421;SDS011;39319;52.944;5.928;2022-11-15T06:38:34;91.20;;;52.22;;
53421;SDS011;39319;52.944;5.928;2022-11-15T06:41:01;87.75;;;50.95;;
53421;SDS011;39319;52.944;5.928;2022-11-15T06:43:31;85.90;;;51.03;;
53421;SDS011;39319;52.944;5.928;2022-11-15T06:46:01;88.57;;;50.65;;
53421;SDS011;39319;52.944;5.928;2022-11-15T06:48:28;95.85;;;51.63;;
53421;SDS011;39319;52.944;5.928;2022-11-15T06:51:01;78.78;;;49.17;;
53421;SDS011;39319;52.944;5.928;2022-11-15T06:53:29;86.60;;;51.20;;
53421;SDS011;39319;52.944;5.928;2022-11-15T06:55:59;91.00;;;51.58;;
53421;SDS011;39319;52.944;5.928;2022-11-15T06:58:26;82.63;;;48.85;;
53421;SDS011;39319;52.944;5.928;2022-11-15T07:00:52;85.10;;;50.22;;
53421;SDS011;39319;52.944;5.928;2022-11-15T07:03:17;80.30;;;49.07;;
53421;SDS011;39319;52.944;5.928;2022-11-15T07:05:50;72.60;;;47.77;;
53421;SDS011;39319;52.944;5.928;2022-11-15T07:08:20;77.78;;;49.33;;
53421;SDS011;39319;52.944;5.928;2022-11-15T07:10:46;86.87;;;50.07;;
53421;SDS011;39319;52.944;5.928;2022-11-15T07:13:15;74.75;;;48.60;;
53421;SDS011;39319;52.944;5.928;2022-11-15T07:15:41;82.40;;;50.40;;
53421;SDS011;39319;52.944;5.928;2022-11-15T07:18:07;76.47;;;47.95;;
53421;SDS011;39319;52.944;5.928;2022-11-15T07:20:33;67.53;;;46.50;;
53421;SDS011;39319;52.944;5.928;2022-11-15T07:23:01;78.72;;;47.63;;
53421;SDS011;39319;52.944;5.928;2022-11-15T07:25:28;68.93;;;45.97;;
53421;SDS011;39319;52.944;5.928;2022-11-15T07:27:57;70.72;;;47.17;;
53421;SDS011;39319;52.944;5.928;2022-11-15T07:30:24;66.35;;;46.15;;
53421;SDS011;39319;52.944;5.928;2022-11-15T07:32:54;66.07;;;45.25;;
53421;SDS011;39319;52.944;5.928;2022-11-15T07:35:21;64.18;;;44.50;;
53421;SDS011;39319;52.944;5.928;2022-11-15T07:38:00;67.03;;;45.13;;
53421;SDS011;39319;52.944;5.928;2022-11-15T07:40:27;63.53;;;44.78;;
53421;SDS011;39319;52.944;5.928;2022-11-15T07:43:05;65.05;;;45.22;;
53421;SDS011;39319;52.944;5.928;2022-11-15T07:45:32;74.35;;;46.28;;
53421;SDS011;39319;52.944;5.928;2022-11-15T07:47:59;61.83;;;43.50;;
53421;SDS011;39319;52.944;5.928;2022-11-15T07:50:25;66.37;;;44.07;;
53421;SDS011;39319;52.944;5.928;2022-11-15T07:52:53;64.55;;;44.47;;
53421;SDS011;39319;52.944;5.928;2022-11-15T07:55:21;66.93;;;46.13;;
53421;SDS011;39319;52.944;5.928;2022-11-15T07:57:47;65.10;;;44.53;;
53421;SDS011;39319;52.944;5.928;2022-11-15T08:00:14;70.00;;;45.30;;
53421;SDS011;39319;52.944;5.928;2022-11-15T08:02:41;71.47;;;45.50;;
53421;SDS011;39319;52.944;5.928;2022-11-15T08:05:08;67.80;;;44.63;;
53421;SDS011;39319;52.944;5.928;2022-11-15T08:07:34;62.67;;;43.63;;
53421;SDS011;39319;52.944;5.928;2022-11-15T08:10:00;65.43;;;43.97;;
53421;SDS011;39319;52.944;5.928;2022-11-15T08:12:27;65.20;;;44.50;;
53421;SDS011;39319;52.944;5.928;2022-11-15T08:14:54;63.78;;;43.78;;
53421;SDS011;39319;52.944;5.928;2022-11-15T08:17:21;61.78;;;43.72;;
53421;SDS011;39319;52.944;5.928;2022-11-15T08:19:48;62.58;;;42.97;;
53421;SDS011;39319;52.944;5.928;2022-11-15T08:22:13;65.13;;;44.33;;
53421;SDS011;39319;52.944;5.928;2022-11-15T08:24:39;65.40;;;43.90;;
53421;SDS011;39319;52.944;5.928;2022-11-15T08:27:08;64.57;;;44.33;;
53421;SDS011;39319;52.944;5.928;2022-11-15T08:29:41;66.32;;;43.50;;
53421;SDS011;39319;52.944;5.928;2022-11-15T08:32:08;64.55;;;42.65;;
53421;SDS011;39319;52.944;5.928;2022-11-15T08:34:35;61.55;;;43.95;;
53421;SDS011;39319;52.944;5.928;2022-11-15T08:37:01;63.28;;;44.03;;
53421;SDS011;39319;52.944;5.928;2022-11-15T08:39:27;57.67;;;42.38;;
53421;SDS011;39319;52.944;5.928;2022-11-15T08:41:53;60.97;;;42.03;;
53421;SDS011;39319;52.944;5.928;2022-11-15T08:44:22;66.63;;;44.25;;
53421;SDS011;39319;52.944;5.928;2022-11-15T08:46:49;58.67;;;41.75;;
53421;SDS011;39319;52.944;5.928;2022-11-15T08:49:15;61.78;;;42.45;;
53421;SDS011;39319;52.944;5.928;2022-11-15T08:51:42;57.35;;;41.70;;
53421;SDS011;39319;52.944;5.928;2022-11-15T08:54:10;62.03;;;42.57;;
53421;SDS011;39319;52.944;5.928;2022-11-15T08:56:36;56.78;;;41.30;;
53421;SDS011;39319;52.944;5.928;2022-11-15T08:59:02;56.65;;;41.53;;
53421;SDS011;39319;52.944;5.928;2022-11-15T09:01:28;63.88;;;43.08;;
53421;SDS011;39319;52.944;5.928;2022-11-15T09:03:54;61.97;;;43.15;;
53421;SDS011;39319;52.944;5.928;2022-11-15T09:06:20;61.40;;;42.90;;
53421;SDS011;39319;52.944;5.928;2022-11-15T09:08:46;62.55;;;42.72;;
53421;SDS011;39319;52.944;5.928;2022-11-15T09:11:13;61.57;;;43.00;;
53421;SDS011;39319;52.944;5.928;2022-11-15T09:13:45;59.33;;;41.75;;
53421;SDS011;39319;52.944;5.928;2022-11-15T09:16:10;59.38;;;42.33;;
53421;SDS011;39319;52.944;5.928;2022-11-15T09:18:37;63.53;;;42.87;;
53421;SDS011;39319;52.944;5.928;2022-11-15T09:21:03;58.88;;;41.30;;
53421;SDS011;39319;52.944;5.928;2022-11-15T09:23:32;61.35;;;42.53;;
53421;SDS011;39319;52.944;5.928;2022-11-15T09:25:59;57.83;;;41.33;;
53421;SDS011;39319;52.944;5.928;2022-11-15T09:28:29;53.92;;;40.45;;
53421;SDS011;39319;52.944;5.928;2022-11-15T09:30:56;55.60;;;40.83;;
53421;SDS011;39319;52.944;5.928;2022-11-15T09:33:26;56.15;;;40.40;;
53421;SDS011;39319;52.944;5.928;2022-11-15T09:35:59;62.35;;;41.05;;
53421;SDS011;39319;52.944;5.928;2022-11-15T09:38:29;54.67;;;41.75;;
53421;SDS011;39319;52.944;5.928;2022-11-15T09:56:56;52.25;;;38.70;;
53421;SDS011;39319;52.944;5.928;2022-11-15T09:59:54;48.65;;;37.45;;
53421;SDS011;39319;52.944;5.928;2022-11-15T10:05:10;50.97;;;36.95;;
53421;SDS011;39319;52.944;5.928;2022-11-15T10:07:46;46.83;;;35.60;;
53421;SDS011;39319;52.944;5.928;2022-11-15T10:11:03;46.03;;;35.40;;
53421;SDS011;39319;52.944;5.928;2022-11-15T10:15:55;47.45;;;35.10;;
53421;SDS011;39319;52.944;5.928;2022-11-15T10:18:37;46.25;;;34.63;;
53421;SDS011;39319;52.944;5.928;2022-11-15T10:21:20;46.40;;;34.15;;
53421;SDS011;39319;52.944;5.928;2022-11-15T10:23:48;43.33;;;33.88;;
53421;SDS011;39319;52.944;5.928;2022-11-15T10:26:16;48.78;;;34.28;;
53421;SDS011;39319;52.944;5.928;2022-11-15T10:28:42;43.83;;;33.88;;
53421;SDS011;39319;52.944;5.928;2022-11-15T10:31:23;44.03;;;33.42;;
53421;SDS011;39319;52.944;5.928;2022-11-15T10:36:55;39.58;;;31.27;;
53421;SDS011;39319;52.944;5.928;2022-11-15T10:39:27;40.40;;;31.33;;
53421;SDS011;39319;52.944;5.928;2022-11-15T10:41:53;40.10;;;30.80;;
53421;SDS011;39319;52.944;5.928;2022-11-15T10:44:24;36.63;;;31.33;;
53421;SDS011;39319;52.944;5.928;2022-11-15T10:49:22;39.05;;;29.63;;
53421;SDS011;39319;52.944;5.928;2022-11-15T10:51:54;40.50;;;29.60;;
53421;SDS011;39319;52.944;5.928;2022-11-15T10:54:29;39.53;;;29.20;;
53421;SDS011;39319;52.944;5.928;2022-11-15T10:57:21;37.72;;;27.25;;
53421;SDS011;39319;52.944;5.928;2022-11-15T10:59:53;34.17;;;26.93;;
53421;SDS011;39319;52.944;5.928;2022-11-15T11:02:32;32.28;;;26.48;;
53421;SDS011;39319;52.944;5.928;2022-11-15T11:05:02;32.70;;;24.92;;
53421;SDS011;39319;52.944;5.928;2022-11-15T11:07:31;34.45;;;25.20;;
53421;SDS011;39319;52.944;5.928;2022-11-15T11:12:44;32.22;;;22.95;;
53421;SDS011;39319;52.944;5.928;2022-11-15T11:15:11;28.98;;;22.27;;
53421;SDS011;39319;52.944;5.928;2022-11-15T11:17:57;29.30;;;22.60;;
53421;SDS011;39319;52.944;5.928;2022-11-15T11:26:35;26.77;;;20.70;;
53421;SDS011;39319;52.944;5.928;2022-11-15T11:29:21;23.53;;;19.50;;
53421;SDS011;39319;52.944;5.928;2022-11-15T11:35:24;23.55;;;18.20;;
53421;SDS011;39319;52.944;5.928;2022-11-15T11:48:30;19.70;;;15.43;;
53421;SDS011;39319;52.944;5.928;2022-11-15T11:51:28;18.10;;;13.27;;
53421;SDS011;39319;52.944;5.928;2022-11-15T11:56:53;16.27;;;11.80;;
53421;SDS011;39319;52.944;5.928;2022-11-15T11:59:38;17.48;;;10.48;;
53421;SDS011;39319;52.944;5.928;2022-11-15T12:02:18;14.80;;;9.90;;
53421;SDS011;39319;52.944;5.928;2022-11-15T12:04:53;13.00;;;8.73;;
53421;SDS011;39319;52.944;5.928;2022-11-15T12:07:52;13.07;;;8.35;;
53421;SDS011;39319;52.944;5.928;2022-11-15T12:10:25;15.57;;;7.77;;
53421;SDS011;39319;52.944;5.928;2022-11-15T12:12:57;13.35;;;6.40;;
53421;SDS011;39319;52.944;5.928;2022-11-15T12:15:32;11.65;;;6.97;;
53421;SDS011;39319;52.944;5.928;2022-11-15T12:18:04;12.55;;;6.82;;
53421;SDS011;39319;52.944;5.928;2022-11-15T12:20:40;10.82;;;6.30;;
53421;SDS011;39319;52.944;5.928;2022-11-15T12:23:28;11.20;;;5.50;;
53421;SDS011;39319;52.944;5.928;2022-11-15T12:26:17;9.60;;;4.70;;
53421;SDS011;39319;52.944;5.928;2022-11-15T12:28:48;8.15;;;4.28;;
53421;SDS011;39319;52.944;5.928;2022-11-15T12:31:23;8.75;;;4.15;;
53421;SDS011;39319;52.944;5.928;2022-11-15T12:34:00;10.18;;;4.07;;
53421;SDS011;39319;52.944;5.928;2022-11-15T12:36:48;8.20;;;3.60;;
53421;SDS011;39319;52.944;5.928;2022-11-15T12:39:19;7.18;;;3.53;;
53421;SDS011;39319;52.944;5.928;2022-11-15T13:17:44;8.67;;;4.20;;
53421;SDS011;39319;52.944;5.928;2022-11-15T13:30:35;9.85;;;3.90;;
53421;SDS011;39319;52.944;5.928;2022-11-15T13:33:14;8.82;;;3.42;;
53421;SDS011;39319;52.944;5.928;2022-11-15T13:35:45;7.38;;;3.53;;
53421;SDS011;39319;52.944;5.928;2022-11-15T13:38:45;8.95;;;3.78;;
53421;SDS011;39319;52.944;5.928;2022-11-15T13:41:21;7.28;;;3.70;;
53421;SDS011;39319;52.944;5.928;2022-11-15T13:43:49;7.47;;;3.30;;
53421;SDS011;39319;52.944;5.928;2022-11-15T13:46:17;7.78;;;3.40;;
53421;SDS011;39319;52.944;5.928;2022-11-15T13:48:45;7.60;;;3.30;;
53421;SDS011;39319;52.944;5.928;2022-11-15T13:51:18;7.90;;;3.50;;
53421;SDS011;39319;52.944;5.928;2022-11-15T13:53:54;8.45;;;3.08;;
53421;SDS011;39319;52.944;5.928;2022-11-15T13:56:49;9.45;;;2.90;;
53421;SDS011;39319;52.944;5.928;2022-11-15T14:01:51;7.22;;;2.80;;
53421;SDS011;39319;52.944;5.928;2022-11-15T14:04:19;8.52;;;3.08;;
53421;SDS011;39319;52.944;5.928;2022-11-15T14:06:50;7.25;;;2.80;;
53421;SDS011;39319;52.944;5.928;2022-11-15T14:12:01;8.37;;;2.73;;
53421;SDS011;39319;52.944;5.928;2022-11-15T14:14:46;9.52;;;2.70;;
53421;SDS011;39319;52.944;5.928;2022-11-15T14:17:19;6.13;;;2.28;;
53421;SDS011;39319;52.944;5.928;2022-11-15T14:19:57;7.40;;;2.63;;
53421;SDS011;39319;52.944;5.928;2022-11-15T14:22:24;7.25;;;2.05;;
53421;SDS011;39319;52.944;5.928;2022-11-15T14:25:24;8.13;;;2.53;;
53421;SDS011;39319;52.944;5.928;2022-11-15T14:28:07;6.25;;;2.13;;
53421;SDS011;39319;52.944;5.928;2022-11-15T14:30:35;7.45;;;2.10;;
53421;SDS011;39319;52.944;5.928;2022-11-15T14:33:01;8.75;;;2.15;;
53421;SDS011;39319;52.944;5.928;2022-11-15T14:35:41;6.95;;;2.60;;
53421;SDS011;39319;52.944;5.928;2022-11-15T14:38:08;5.78;;;2.20;;
53421;SDS011;39319;52.944;5.928;2022-11-15T14:40:34;7.65;;;2.33;;
53421;SDS011;39319;52.944;5.928;2022-11-15T14:43:00;6.53;;;1.90;;
53421;SDS011;39319;52.944;5.928;2022-11-15T14:45:26;5.75;;;1.95;;
53421;SDS011;39319;52.944;5.928;2022-11-15T14:47:52;7.87;;;2.37;;
53421;SDS011;39319;52.944;5.928;2022-11-15T14:50:19;7.65;;;2.28;;
53421;SDS011;39319;52.944;5.928;2022-11-15T14:52:46;8.48;;;2.42;;
53421;SDS011;39319;52.944;5.928;2022-11-15T14:55:20;7.10;;;2.00;;
53421;SDS011;39319;52.944;5.928;2022-11-15T14:57:52;6.22;;;2.05;;
53421;SDS011;39319;52.944;5.928;2022-11-15T15:00:18;7.30;;;2.43;;
53421;SDS011;39319;52.944;5.928;2022-11-15T15:02:44;7.30;;;2.20;;
53421;SDS011;39319;52.944;5.928;2022-11-15T15:05:16;7.95;;;2.30;;
53421;SDS011;39319;52.944;5.928;2022-11-15T15:07:55;6.20;;;1.83;;
53421;SDS011;39319;52.944;5.928;2022-11-15T15:10:21;6.20;;;1.90;;
53421;SDS011;39319;52.944;5.928;2022-11-15T15:12:48;6.38;;;2.00;;
53421;SDS011;39319;52.944;5.928;2022-11-15T15:15:15;5.18;;;1.80;;
53421;SDS011;39319;52.944;5.928;2022-11-15T15:17:43;6.22;;;1.80;;
53421;SDS011;39319;52.944;5.928;2022-11-15T15:20:09;6.65;;;1.80;;
53421;SDS011;39319;52.944;5.928;2022-11-15T15:22:35;6.43;;;1.60;;
53421;SDS011;39319;52.944;5.928;2022-11-15T15:25:02;7.32;;;1.70;;
53421;SDS011;39319;52.944;5.928;2022-11-15T15:27:29;8.90;;;1.77;;
53421;SDS011;39319;52.944;5.928;2022-11-15T15:29:55;4.45;;;1.60;;
53421;SDS011;39319;52.944;5.928;2022-11-15T15:32:21;6.50;;;1.70;;
53421;SDS011;39319;52.944;5.928;2022-11-15T15:34:47;5.35;;;1.67;;
53421;SDS011;39319;52.944;5.928;2022-11-15T15:37:21;6.77;;;2.00;;
53421;SDS011;39319;52.944;5.928;2022-11-15T15:39:52;8.05;;;2.42;;
53421;SDS011;39319;52.944;5.928;2022-11-15T15:42:20;6.00;;;2.20;;
53421;SDS011;39319;52.944;5.928;2022-11-15T15:44:47;5.82;;;2.10;;
53421;SDS011;39319;52.944;5.928;2022-11-15T15:47:15;5.63;;;2.38;;
53421;SDS011;39319;52.944;5.928;2022-11-15T15:49:46;8.35;;;2.60;;
53421;SDS011;39319;52.944;5.928;2022-11-15T15:52:12;7.22;;;3.05;;
53421;SDS011;39319;52.944;5.928;2022-11-15T15:54:39;6.40;;;2.80;;
53421;SDS011;39319;52.944;5.928;2022-11-15T15:57:05;6.97;;;2.97;;
53421;SDS011;39319;52.944;5.928;2022-11-15T15:59:31;6.68;;;2.65;;
53421;SDS011;39319;52.944;5.928;2022-11-15T16:01:57;9.00;;;3.30;;
53421;SDS011;39319;52.944;5.928;2022-11-15T16:04:23;8.90;;;3.80;;
53421;SDS011;39319;52.944;5.928;2022-11-15T16:06:49;7.50;;;3.60;;
53421;SDS011;39319;52.944;5.928;2022-11-15T16:09:18;7.47;;;3.78;;
53421;SDS011;39319;52.944;5.928;2022-11-15T16:12:04;7.93;;;4.00;;
53421;SDS011;39319;52.944;5.928;2022-11-15T16:14:30;10.10;;;3.70;;
53421;SDS011;39319;52.944;5.928;2022-11-15T16:16:56;8.00;;;4.00;;
53421;SDS011;39319;52.944;5.928;2022-11-15T16:19:22;9.57;;;4.60;;
53421;SDS011;39319;52.944;5.928;2022-11-15T16:21:49;9.75;;;4.72;;
53421;SDS011;39319;52.944;5.928;2022-11-15T16:24:17;8.55;;;4.60;;
53421;SDS011;39319;52.944;5.928;2022-11-15T16:26:43;7.78;;;4.13;;
53421;SDS011;39319;52.944;5.928;2022-11-15T16:29:10;7.55;;;4.10;;
53421;SDS011;39319;52.944;5.928;2022-11-15T16:31:36;10.27;;;4.90;;
53421;SDS011;39319;52.944;5.928;2022-11-15T16:34:02;9.73;;;5.03;;
53421;SDS011;39319;52.944;5.928;2022-11-15T16:36:30;8.90;;;4.93;;
53421;SDS011;39319;52.944;5.928;2022-11-15T16:38:57;8.85;;;5.38;;
53421;SDS011;39319;52.944;5.928;2022-11-15T16:41:24;10.43;;;5.63;;
53421;SDS011;39319;52.944;5.928;2022-11-15T16:43:50;9.32;;;5.28;;
53421;SDS011;39319;52.944;5.928;2022-11-15T16:46:18;8.40;;;5.05;;
53421;SDS011;39319;52.944;5.928;2022-11-15T16:48:45;9.18;;;5.13;;
53421;SDS011;39319;52.944;5.928;2022-11-15T16:51:11;9.00;;;4.95;;
53421;SDS011;39319;52.944;5.928;2022-11-15T16:53:37;11.35;;;5.00;;
53421;SDS011;39319;52.944;5.928;2022-11-15T16:56:04;10.00;;;4.80;;
53421;SDS011;39319;52.944;5.928;2022-11-15T16:58:54;9.88;;;4.70;;
53421;SDS011;39319;52.944;5.928;2022-11-15T17:01:23;8.48;;;4.45;;
53421;SDS011;39319;52.944;5.928;2022-11-15T17:03:54;7.03;;;3.90;;